sensor_id;sensor_type;location;lat;lon;timestamp;temperature;humidity
15296;DHT22;7749;49.964;7.890;2022-10-31T00:01:34;13.00;99.90
15296;DHT22;7749;49.964;7.890;2022-10-31T00:04:03;12.90;99.90
15296;DHT22;7749;49.964;7.890;2022-10-31T00:06:31;12.90;99.90
15296;DHT22;7749;49.964;7.890;2022-10-31T00:09:00;12.90;99.90
15296;DHT22;7749;49.964;7.890;2022-10-31T00:11:29;12.90;99.90
15296;DHT22;7749;49.964;7.890;2022-10-31T00:13:57;12.90;99.90
15296;DHT22;7749;49.964;7.890;2022-10-31T00:16:27;12.90;99.90
15296;DHT22;7749;49.964;7.890;2022-10-31T00:19:00;12.80;99.90
15296;DHT22;7749;49.964;7.890;2022-10-31T00:21:30;12.80;99.90
15296;DHT22;7749;49.964;7.890;2022-10-31T00:23:59;12.80;99.90
15296;DHT22;7749;49.964;7.890;2022-10-31T00:26:28;12.90;99.90
15296;DHT22;7749;49.964;7.890;2022-10-31T00:28:59;12.90;99.90
15296;DHT22;7749;49.964;7.890;2022-10-31T00:31:27;12.90;99.90
15296;DHT22;7749;49.964;7.890;2022-10-31T00:33:57;12.90;99.90
15296;DHT22;7749;49.964;7.890;2022-10-31T00:36:25;12.90;99.90
15296;DHT22;7749;49.964;7.890;2022-10-31T00:38:53;12.90;99.90
15296;DHT22;7749;49.964;7.890;2022-10-31T00:41:20;12.80;99.90
15296;DHT22;7749;49.964;7.890;2022-10-31T00:43:48;12.90;99.90
15296;DHT22;7749;49.964;7.890;2022-10-31T00:46:16;12.90;99.90
15296;DHT22;7749;49.964;7.890;2022-10-31T00:48:44;12.80;99.90
15296;DHT22;7749;49.964;7.890;2022-10-31T00:51:11;12.80;99.90
15296;DHT22;7749;49.964;7.890;2022-10-31T00:53:39;12.80;99.90
15296;DHT22;7749;49.964;7.890;2022-10-31T00:56:07;12.60;99.90
15296;DHT22;7749;49.964;7.890;2022-10-31T00:58:34;12.40;99.90
15296;DHT22;7749;49.964;7.890;2022-10-31T01:01:03;12.40;99.90
15296;DHT22;7749;49.964;7.890;2022-10-31T01:03:32;12.30;99.90
15296;DHT22;7749;49.964;7.890;2022-10-31T01:06:09;12.30;99.90
15296;DHT22;7749;49.964;7.890;2022-10-31T01:08:38;12.20;99.90
15296;DHT22;7749;49.964;7.890;2022-10-31T01:11:16;12.30;99.90
15296;DHT22;7749;49.964;7.890;2022-10-31T01:13:45;12.40;99.90
15296;DHT22;7749;49.964;7.890;2022-10-31T01:16:17;12.40;99.90
15296;DHT22;7749;49.964;7.890;2022-10-31T01:18:46;12.50;99.90
15296;DHT22;7749;49.964;7.890;2022-10-31T01:21:18;12.60;99.90
15296;DHT22;7749;49.964;7.890;2022-10-31T01:23:47;12.80;99.90
15296;DHT22;7749;49.964;7.890;2022-10-31T01:26:20;12.80;99.90
15296;DHT22;7749;49.964;7.890;2022-10-31T01:28:53;12.90;99.90
15296;DHT22;7749;49.964;7.890;2022-10-31T01:31:24;12.90;99.90
15296;DHT22;7749;49.964;7.890;2022-10-31T01:33:52;13.00;99.90
15296;DHT22;7749;49.964;7.890;2022-10-31T01:36:30;12.90;99.90
15296;DHT22;7749;49.964;7.890;2022-10-31T01:39:02;12.80;99.90
15296;DHT22;7749;49.964;7.890;2022-10-31T01:41:33;12.70;99.90
15296;DHT22;7749;49.964;7.890;2022-10-31T01:44:46;12.60;99.90
15296;DHT22;7749;49.964;7.890;2022-10-31T01:47:14;12.50;99.90
15296;DHT22;7749;49.964;7.890;2022-10-31T01:49:49;12.40;99.90
15296;DHT22;7749;49.964;7.890;2022-10-31T01:52:22;12.30;99.90
15296;DHT22;7749;49.964;7.890;2022-10-31T01:57:29;12.20;99.90
15296;DHT22;7749;49.964;7.890;2022-10-31T02:00:00;12.00;99.90
15296;DHT22;7749;49.964;7.890;2022-10-31T02:02:30;11.90;99.90
15296;DHT22;7749;49.964;7.890;2022-10-31T02:05:04;11.80;99.90
15296;DHT22;7749;49.964;7.890;2022-10-31T02:07:38;11.70;99.90
15296;DHT22;7749;49.964;7.890;2022-10-31T02:10:07;11.70;99.90
15296;DHT22;7749;49.964;7.890;2022-10-31T02:12:35;11.70;99.90
15296;DHT22;7749;49.964;7.890;2022-10-31T02:15:06;11.60;99.90
15296;DHT22;7749;49.964;7.890;2022-10-31T02:17:34;11.60;99.90
15296;DHT22;7749;49.964;7.890;2022-10-31T02:23:28;11.60;99.90
15296;DHT22;7749;49.964;7.890;2022-10-31T02:31:47;11.60;99.90
15296;DHT22;7749;49.964;7.890;2022-10-31T02:34:34;11.60;99.90
15296;DHT22;7749;49.964;7.890;2022-10-31T02:37:14;11.60;99.90
15296;DHT22;7749;49.964;7.890;2022-10-31T02:42:29;11.60;99.90
15296;DHT22;7749;49.964;7.890;2022-10-31T02:47:36;11.60;99.90
15296;DHT22;7749;49.964;7.890;2022-10-31T02:50:18;11.60;99.90
15296;DHT22;7749;49.964;7.890;2022-10-31T02:52:50;11.60;99.90
15296;DHT22;7749;49.964;7.890;2022-10-31T02:57:55;11.60;99.90
15296;DHT22;7749;49.964;7.890;2022-10-31T03:00:25;11.60;99.90
15296;DHT22;7749;49.964;7.890;2022-10-31T03:02:58;11.50;99.90
15296;DHT22;7749;49.964;7.890;2022-10-31T03:10:58;11.60;99.90
15296;DHT22;7749;49.964;7.890;2022-10-31T03:16:18;11.50;99.90
15296;DHT22;7749;49.964;7.890;2022-10-31T03:19:10;11.50;99.90
15296;DHT22;7749;49.964;7.890;2022-10-31T03:21:50;11.50;99.90
15296;DHT22;7749;49.964;7.890;2022-10-31T03:24:21;11.50;99.90
15296;DHT22;7749;49.964;7.890;2022-10-31T03:26:52;11.50;99.90
15296;DHT22;7749;49.964;7.890;2022-10-31T03:29:23;11.60;99.90
15296;DHT22;7749;49.964;7.890;2022-10-31T03:31:55;11.60;99.90
15296;DHT22;7749;49.964;7.890;2022-10-31T03:34:25;11.50;99.90
15296;DHT22;7749;49.964;7.890;2022-10-31T03:36:57;11.60;99.90
15296;DHT22;7749;49.964;7.890;2022-10-31T03:39:25;11.60;99.90
15296;DHT22;7749;49.964;7.890;2022-10-31T03:42:05;11.60;99.90
15296;DHT22;7749;49.964;7.890;2022-10-31T03:44:33;11.50;99.90
15296;DHT22;7749;49.964;7.890;2022-10-31T03:47:03;11.50;99.90
15296;DHT22;7749;49.964;7.890;2022-10-31T03:49:32;11.40;99.90
15296;DHT22;7749;49.964;7.890;2022-10-31T04:00:16;11.30;99.90
15296;DHT22;7749;49.964;7.890;2022-10-31T04:02:58;11.30;99.90
15296;DHT22;7749;49.964;7.890;2022-10-31T04:05:29;11.30;99.90
15296;DHT22;7749;49.964;7.890;2022-10-31T04:07:59;11.20;99.90
15296;DHT22;7749;49.964;7.890;2022-10-31T04:10:28;11.20;99.90
15296;DHT22;7749;49.964;7.890;2022-10-31T04:13:12;11.20;99.90
15296;DHT22;7749;49.964;7.890;2022-10-31T04:15:42;11.20;99.90
15296;DHT22;7749;49.964;7.890;2022-10-31T04:18:10;11.10;99.90
15296;DHT22;7749;49.964;7.890;2022-10-31T04:20:41;11.10;99.90
15296;DHT22;7749;49.964;7.890;2022-10-31T04:23:26;11.10;99.90
15296;DHT22;7749;49.964;7.890;2022-10-31T04:25:54;11.10;99.90
15296;DHT22;7749;49.964;7.890;2022-10-31T04:28:21;11.10;99.90
15296;DHT22;7749;49.964;7.890;2022-10-31T04:30:49;11.10;99.90
15296;DHT22;7749;49.964;7.890;2022-10-31T04:33:18;11.10;99.90
15296;DHT22;7749;49.964;7.890;2022-10-31T04:35:46;11.10;99.90
15296;DHT22;7749;49.964;7.890;2022-10-31T04:38:19;11.20;99.90
15296;DHT22;7749;49.964;7.890;2022-10-31T04:40:47;11.20;99.90
15296;DHT22;7749;49.964;7.890;2022-10-31T04:43:15;11.20;99.90
15296;DHT22;7749;49.964;7.890;2022-10-31T04:45:43;11.10;99.90
15296;DHT22;7749;49.964;7.890;2022-10-31T04:48:10;11.20;99.90
15296;DHT22;7749;49.964;7.890;2022-10-31T04:50:38;11.30;99.90
15296;DHT22;7749;49.964;7.890;2022-10-31T04:53:06;11.30;99.90
15296;DHT22;7749;49.964;7.890;2022-10-31T04:55:35;11.30;99.90
15296;DHT22;7749;49.964;7.890;2022-10-31T04:58:03;11.30;99.90
15296;DHT22;7749;49.964;7.890;2022-10-31T05:00:31;11.30;99.90
15296;DHT22;7749;49.964;7.890;2022-10-31T05:02:59;11.30;99.90
15296;DHT22;7749;49.964;7.890;2022-10-31T05:05:29;11.30;99.90
15296;DHT22;7749;49.964;7.890;2022-10-31T05:07:58;11.30;99.90
15296;DHT22;7749;49.964;7.890;2022-10-31T05:10:28;11.30;99.90
15296;DHT22;7749;49.964;7.890;2022-10-31T05:12:58;11.30;99.90
15296;DHT22;7749;49.964;7.890;2022-10-31T05:15:27;11.30;99.90
15296;DHT22;7749;49.964;7.890;2022-10-31T05:17:55;11.30;99.90
15296;DHT22;7749;49.964;7.890;2022-10-31T05:20:26;11.30;99.90
15296;DHT22;7749;49.964;7.890;2022-10-31T05:22:56;11.30;99.90
15296;DHT22;7749;49.964;7.890;2022-10-31T05:25:26;11.40;99.90
15296;DHT22;7749;49.964;7.890;2022-10-31T05:27:55;11.30;99.90
15296;DHT22;7749;49.964;7.890;2022-10-31T05:30:29;11.30;99.90
15296;DHT22;7749;49.964;7.890;2022-10-31T05:32:57;11.20;99.90
15296;DHT22;7749;49.964;7.890;2022-10-31T05:35:30;11.10;99.90
15296;DHT22;7749;49.964;7.890;2022-10-31T05:37:59;11.00;99.90
15296;DHT22;7749;49.964;7.890;2022-10-31T05:40:28;11.00;99.90
15296;DHT22;7749;49.964;7.890;2022-10-31T05:42:56;11.00;99.90
15296;DHT22;7749;49.964;7.890;2022-10-31T05:45:26;10.90;99.90
15296;DHT22;7749;49.964;7.890;2022-10-31T05:47:59;10.90;99.90
15296;DHT22;7749;49.964;7.890;2022-10-31T05:50:29;10.90;99.90
15296;DHT22;7749;49.964;7.890;2022-10-31T05:53:03;10.90;99.90
15296;DHT22;7749;49.964;7.890;2022-10-31T05:55:31;10.80;99.90
15296;DHT22;7749;49.964;7.890;2022-10-31T05:57:59;10.70;99.90
15296;DHT22;7749;49.964;7.890;2022-10-31T06:00:28;10.70;99.90
15296;DHT22;7749;49.964;7.890;2022-10-31T06:03:00;10.70;99.90
15296;DHT22;7749;49.964;7.890;2022-10-31T06:05:29;10.70;99.90
15296;DHT22;7749;49.964;7.890;2022-10-31T06:07:57;10.70;99.90
15296;DHT22;7749;49.964;7.890;2022-10-31T06:10:26;10.80;99.90
15296;DHT22;7749;49.964;7.890;2022-10-31T06:12:54;10.80;99.90
15296;DHT22;7749;49.964;7.890;2022-10-31T06:15:22;10.80;99.90
15296;DHT22;7749;49.964;7.890;2022-10-31T06:18:02;10.80;99.90
15296;DHT22;7749;49.964;7.890;2022-10-31T06:20:31;10.80;99.90
15296;DHT22;7749;49.964;7.890;2022-10-31T06:22:59;10.80;99.90
15296;DHT22;7749;49.964;7.890;2022-10-31T06:25:28;10.80;99.90
15296;DHT22;7749;49.964;7.890;2022-10-31T06:27:56;10.80;99.90
15296;DHT22;7749;49.964;7.890;2022-10-31T06:30:24;10.80;99.90
15296;DHT22;7749;49.964;7.890;2022-10-31T06:32:52;10.80;99.90
15296;DHT22;7749;49.964;7.890;2022-10-31T06:35:20;10.90;99.90
15296;DHT22;7749;49.964;7.890;2022-10-31T06:37:52;10.90;99.90
15296;DHT22;7749;49.964;7.890;2022-10-31T06:40:21;11.00;99.90
15296;DHT22;7749;49.964;7.890;2022-10-31T06:42:59;11.10;99.90
15296;DHT22;7749;49.964;7.890;2022-10-31T06:45:27;11.20;99.90
15296;DHT22;7749;49.964;7.890;2022-10-31T06:47:56;11.20;99.90
15296;DHT22;7749;49.964;7.890;2022-10-31T06:50:43;11.30;99.90
15296;DHT22;7749;49.964;7.890;2022-10-31T06:53:11;11.30;99.90
15296;DHT22;7749;49.964;7.890;2022-10-31T06:55:39;11.30;99.90
15296;DHT22;7749;49.964;7.890;2022-10-31T06:58:10;11.40;99.90
15296;DHT22;7749;49.964;7.890;2022-10-31T07:00:38;11.50;99.90
15296;DHT22;7749;49.964;7.890;2022-10-31T07:03:10;11.60;99.90
15296;DHT22;7749;49.964;7.890;2022-10-31T07:05:39;11.60;99.90
15296;DHT22;7749;49.964;7.890;2022-10-31T07:08:09;11.60;99.90
15296;DHT22;7749;49.964;7.890;2022-10-31T07:10:38;11.70;99.90
15296;DHT22;7749;49.964;7.890;2022-10-31T07:13:12;11.80;99.90
15296;DHT22;7749;49.964;7.890;2022-10-31T07:15:41;11.80;99.90
15296;DHT22;7749;49.964;7.890;2022-10-31T07:18:11;11.90;99.90
15296;DHT22;7749;49.964;7.890;2022-10-31T07:20:39;12.00;99.90
15296;DHT22;7749;49.964;7.890;2022-10-31T07:23:08;12.00;99.90
15296;DHT22;7749;49.964;7.890;2022-10-31T07:25:38;12.10;99.90
15296;DHT22;7749;49.964;7.890;2022-10-31T07:28:06;12.20;99.90
15296;DHT22;7749;49.964;7.890;2022-10-31T07:30:33;12.30;99.90
15296;DHT22;7749;49.964;7.890;2022-10-31T07:33:02;12.30;99.90
15296;DHT22;7749;49.964;7.890;2022-10-31T07:35:30;12.30;99.90
15296;DHT22;7749;49.964;7.890;2022-10-31T07:38:06;12.30;99.90
15296;DHT22;7749;49.964;7.890;2022-10-31T07:40:34;12.40;99.90
15296;DHT22;7749;49.964;7.890;2022-10-31T07:43:02;12.30;99.90
15296;DHT22;7749;49.964;7.890;2022-10-31T07:45:30;12.40;99.90
15296;DHT22;7749;49.964;7.890;2022-10-31T07:47:57;12.50;99.90
15296;DHT22;7749;49.964;7.890;2022-10-31T07:50:31;12.60;99.90
15296;DHT22;7749;49.964;7.890;2022-10-31T07:53:12;12.70;99.90
15296;DHT22;7749;49.964;7.890;2022-10-31T07:55:40;12.70;99.90
15296;DHT22;7749;49.964;7.890;2022-10-31T07:58:21;12.90;99.90
15296;DHT22;7749;49.964;7.890;2022-10-31T08:00:49;13.10;99.90
15296;DHT22;7749;49.964;7.890;2022-10-31T08:03:18;13.30;99.90
15296;DHT22;7749;49.964;7.890;2022-10-31T08:05:46;13.40;99.90
15296;DHT22;7749;49.964;7.890;2022-10-31T08:08:15;13.50;99.90
15296;DHT22;7749;49.964;7.890;2022-10-31T08:10:43;13.50;99.90
15296;DHT22;7749;49.964;7.890;2022-10-31T08:13:12;13.60;99.90
15296;DHT22;7749;49.964;7.890;2022-10-31T08:15:40;13.60;99.90
15296;DHT22;7749;49.964;7.890;2022-10-31T08:18:12;13.70;99.90
15296;DHT22;7749;49.964;7.890;2022-10-31T08:20:43;13.90;99.90
15296;DHT22;7749;49.964;7.890;2022-10-31T08:23:12;13.90;99.90
15296;DHT22;7749;49.964;7.890;2022-10-31T08:25:40;14.00;99.90
15296;DHT22;7749;49.964;7.890;2022-10-31T08:28:11;14.10;99.90
15296;DHT22;7749;49.964;7.890;2022-10-31T08:30:40;14.20;99.90
15296;DHT22;7749;49.964;7.890;2022-10-31T08:33:17;14.20;99.90
15296;DHT22;7749;49.964;7.890;2022-10-31T08:35:45;14.30;99.90
15296;DHT22;7749;49.964;7.890;2022-10-31T08:38:12;14.40;99.90
15296;DHT22;7749;49.964;7.890;2022-10-31T08:40:41;14.50;99.90
15296;DHT22;7749;49.964;7.890;2022-10-31T08:43:12;14.60;99.90
15296;DHT22;7749;49.964;7.890;2022-10-31T08:45:41;14.60;99.90
15296;DHT22;7749;49.964;7.890;2022-10-31T08:48:13;14.60;99.90
15296;DHT22;7749;49.964;7.890;2022-10-31T08:50:41;14.70;99.90
15296;DHT22;7749;49.964;7.890;2022-10-31T08:53:12;14.80;99.90
15296;DHT22;7749;49.964;7.890;2022-10-31T08:55:41;14.80;99.90
15296;DHT22;7749;49.964;7.890;2022-10-31T08:58:12;14.90;99.90
15296;DHT22;7749;49.964;7.890;2022-10-31T09:00:40;14.90;99.90
15296;DHT22;7749;49.964;7.890;2022-10-31T09:03:14;14.90;99.90
15296;DHT22;7749;49.964;7.890;2022-10-31T09:05:42;14.90;99.90
15296;DHT22;7749;49.964;7.890;2022-10-31T09:08:10;14.90;99.90
15296;DHT22;7749;49.964;7.890;2022-10-31T09:10:43;14.90;99.90
15296;DHT22;7749;49.964;7.890;2022-10-31T09:13:14;14.90;99.90
15296;DHT22;7749;49.964;7.890;2022-10-31T09:15:44;15.10;99.90
15296;DHT22;7749;49.964;7.890;2022-10-31T09:18:13;15.10;99.90
15296;DHT22;7749;49.964;7.890;2022-10-31T09:20:43;15.10;99.90
15296;DHT22;7749;49.964;7.890;2022-10-31T09:23:13;15.20;99.90
15296;DHT22;7749;49.964;7.890;2022-10-31T09:25:42;15.10;99.90
15296;DHT22;7749;49.964;7.890;2022-10-31T09:28:22;15.20;99.90
15296;DHT22;7749;49.964;7.890;2022-10-31T09:30:51;15.20;99.90
15296;DHT22;7749;49.964;7.890;2022-10-31T09:33:20;15.30;99.90
15296;DHT22;7749;49.964;7.890;2022-10-31T09:35:48;15.30;99.90
15296;DHT22;7749;49.964;7.890;2022-10-31T09:38:19;15.40;99.90
15296;DHT22;7749;49.964;7.890;2022-10-31T09:51:44;16.00;99.90
15296;DHT22;7749;49.964;7.890;2022-10-31T09:57:00;16.30;99.90
15296;DHT22;7749;49.964;7.890;2022-10-31T09:59:31;16.40;99.90
15296;DHT22;7749;49.964;7.890;2022-10-31T10:13:51;16.90;94.40
15296;DHT22;7749;49.964;7.890;2022-10-31T10:30:11;17.40;75.10
15296;DHT22;7749;49.964;7.890;2022-10-31T10:33:03;17.50;76.50
15296;DHT22;7749;49.964;7.890;2022-10-31T10:35:33;17.70;55.10
15296;DHT22;7749;49.964;7.890;2022-10-31T10:40:47;18.00;24.20
15296;DHT22;7749;49.964;7.890;2022-10-31T10:43:20;18.10;19.00
15296;DHT22;7749;49.964;7.890;2022-10-31T10:52:36;18.90;1.00
15296;DHT22;7749;49.964;7.890;2022-10-31T10:58:15;18.90;1.00
15296;DHT22;7749;49.964;7.890;2022-10-31T11:00:45;18.80;1.00
15296;DHT22;7749;49.964;7.890;2022-10-31T11:03:17;18.80;1.00
15296;DHT22;7749;49.964;7.890;2022-10-31T11:05:53;18.80;1.00
15296;DHT22;7749;49.964;7.890;2022-10-31T11:08:32;18.80;1.00
15296;DHT22;7749;49.964;7.890;2022-10-31T11:11:05;18.80;1.00
15296;DHT22;7749;49.964;7.890;2022-10-31T11:13:36;18.90;1.00
15296;DHT22;7749;49.964;7.890;2022-10-31T11:16:06;19.10;1.00
15296;DHT22;7749;49.964;7.890;2022-10-31T11:18:38;19.00;1.00
15296;DHT22;7749;49.964;7.890;2022-10-31T11:21:26;19.00;1.00
15296;DHT22;7749;49.964;7.890;2022-10-31T11:26:39;18.90;1.00
15296;DHT22;7749;49.964;7.890;2022-10-31T11:29:21;18.80;1.00
15296;DHT22;7749;49.964;7.890;2022-10-31T11:32:32;18.80;1.00
15296;DHT22;7749;49.964;7.890;2022-10-31T11:35:31;18.80;1.00
15296;DHT22;7749;49.964;7.890;2022-10-31T11:38:35;18.80;1.00
15296;DHT22;7749;49.964;7.890;2022-10-31T11:41:36;18.90;1.00
15296;DHT22;7749;49.964;7.890;2022-10-31T11:44:35;18.90;1.00
15296;DHT22;7749;49.964;7.890;2022-10-31T11:51:02;19.60;1.00
15296;DHT22;7749;49.964;7.890;2022-10-31T11:54:45;19.90;1.00
15296;DHT22;7749;49.964;7.890;2022-10-31T11:57:46;20.20;99.90
15296;DHT22;7749;49.964;7.890;2022-10-31T12:07:44;20.60;1.00
15296;DHT22;7749;49.964;7.890;2022-10-31T12:38:41;24.20;99.90
15296;DHT22;7749;49.964;7.890;2022-10-31T12:43:08;23.80;99.90
15296;DHT22;7749;49.964;7.890;2022-10-31T12:51:39;21.50;1.00
15296;DHT22;7749;49.964;7.890;2022-10-31T12:58:04;20.30;1.00
15296;DHT22;7749;49.964;7.890;2022-10-31T13:00:50;19.80;1.00
15296;DHT22;7749;49.964;7.890;2022-10-31T13:04:16;19.60;1.00
15296;DHT22;7749;49.964;7.890;2022-10-31T13:17:39;18.80;3.00
15296;DHT22;7749;49.964;7.890;2022-10-31T13:20:44;18.60;18.70
15296;DHT22;7749;49.964;7.890;2022-10-31T13:24:17;18.50;27.20
15296;DHT22;7749;49.964;7.890;2022-10-31T13:27:42;18.30;42.70
15296;DHT22;7749;49.964;7.890;2022-10-31T13:30:33;18.20;44.80
15296;DHT22;7749;49.964;7.890;2022-10-31T13:33:53;18.20;46.30
15296;DHT22;7749;49.964;7.890;2022-10-31T13:36:33;18.30;45.50
15296;DHT22;7749;49.964;7.890;2022-10-31T13:40:20;18.30;45.80
15296;DHT22;7749;49.964;7.890;2022-10-31T13:46:20;18.20;52.20
15296;DHT22;7749;49.964;7.890;2022-10-31T13:49:37;18.10;51.70
15296;DHT22;7749;49.964;7.890;2022-10-31T13:52:21;18.10;57.20
15296;DHT22;7749;49.964;7.890;2022-10-31T13:55:41;18.10;56.50
15296;DHT22;7749;49.964;7.890;2022-10-31T13:58:43;18.10;50.70
15296;DHT22;7749;49.964;7.890;2022-10-31T14:01:55;18.20;48.80
15296;DHT22;7749;49.964;7.890;2022-10-31T14:05:28;18.60;76.10
15296;DHT22;7749;49.964;7.890;2022-10-31T14:08:40;20.70;99.90
15296;DHT22;7749;49.964;7.890;2022-10-31T14:11:48;24.00;99.90
15296;DHT22;7749;49.964;7.890;2022-10-31T14:14:46;26.90;99.90
15296;DHT22;7749;49.964;7.890;2022-10-31T14:20:34;28.40;96.30
15296;DHT22;7749;49.964;7.890;2022-10-31T14:23:47;27.80;97.40
15296;DHT22;7749;49.964;7.890;2022-10-31T14:27:32;26.00;99.90
15296;DHT22;7749;49.964;7.890;2022-10-31T14:30:28;24.00;1.00
15296;DHT22;7749;49.964;7.890;2022-10-31T14:33:40;22.40;99.90
15296;DHT22;7749;49.964;7.890;2022-10-31T14:40:26;20.50;1.00
15296;DHT22;7749;49.964;7.890;2022-10-31T14:51:14;19.00;1.00
15296;DHT22;7749;49.964;7.890;2022-10-31T14:53:59;18.70;6.20
15296;DHT22;7749;49.964;7.890;2022-10-31T14:56:57;18.40;21.40
15296;DHT22;7749;49.964;7.890;2022-10-31T15:03:47;18.00;70.80
15296;DHT22;7749;49.964;7.890;2022-10-31T15:10:19;17.60;99.90
15296;DHT22;7749;49.964;7.890;2022-10-31T15:13:34;17.50;99.90
15296;DHT22;7749;49.964;7.890;2022-10-31T15:16:46;17.30;99.90
15296;DHT22;7749;49.964;7.890;2022-10-31T15:19:42;17.30;99.90
15296;DHT22;7749;49.964;7.890;2022-10-31T15:22:14;17.20;99.90
15296;DHT22;7749;49.964;7.890;2022-10-31T15:24:47;17.20;99.90
15296;DHT22;7749;49.964;7.890;2022-10-31T15:27:19;17.20;99.90
15296;DHT22;7749;49.964;7.890;2022-10-31T15:32:24;17.20;99.90
15296;DHT22;7749;49.964;7.890;2022-10-31T15:34:54;17.20;99.90
15296;DHT22;7749;49.964;7.890;2022-10-31T15:37:23;17.30;99.90
15296;DHT22;7749;49.964;7.890;2022-10-31T15:39:52;17.30;99.90
15296;DHT22;7749;49.964;7.890;2022-10-31T15:42:35;17.30;99.90
15296;DHT22;7749;49.964;7.890;2022-10-31T15:47:39;17.30;99.90
15296;DHT22;7749;49.964;7.890;2022-10-31T15:50:22;17.10;99.90
15296;DHT22;7749;49.964;7.890;2022-10-31T15:52:51;16.90;99.90
15296;DHT22;7749;49.964;7.890;2022-10-31T15:55:24;16.70;99.90
15296;DHT22;7749;49.964;7.890;2022-10-31T15:58:02;16.60;99.90
15296;DHT22;7749;49.964;7.890;2022-10-31T16:00:34;16.50;99.90
15296;DHT22;7749;49.964;7.890;2022-10-31T16:03:24;16.30;99.90
15296;DHT22;7749;49.964;7.890;2022-10-31T16:05:58;16.30;99.90
15296;DHT22;7749;49.964;7.890;2022-10-31T16:16:24;15.90;99.90
15296;DHT22;7749;49.964;7.890;2022-10-31T16:19:22;15.80;99.90
15296;DHT22;7749;49.964;7.890;2022-10-31T16:22:12;15.70;99.90
15296;DHT22;7749;49.964;7.890;2022-10-31T16:27:39;15.60;99.90
15296;DHT22;7749;49.964;7.890;2022-10-31T16:30:44;15.50;99.90
15296;DHT22;7749;49.964;7.890;2022-10-31T16:33:31;15.40;99.90
15296;DHT22;7749;49.964;7.890;2022-10-31T16:36:30;15.40;99.90
15296;DHT22;7749;49.964;7.890;2022-10-31T16:39:03;15.30;99.90
15296;DHT22;7749;49.964;7.890;2022-10-31T16:41:54;15.30;99.90
15296;DHT22;7749;49.964;7.890;2022-10-31T16:44:26;15.30;99.90
15296;DHT22;7749;49.964;7.890;2022-10-31T16:47:20;15.20;99.90
15296;DHT22;7749;49.964;7.890;2022-10-31T16:49:58;15.20;99.90
15296;DHT22;7749;49.964;7.890;2022-10-31T16:52:35;15.30;99.90
15296;DHT22;7749;49.964;7.890;2022-10-31T16:55:20;15.40;99.90
15296;DHT22;7749;49.964;7.890;2022-10-31T16:57:53;15.50;99.90
15296;DHT22;7749;49.964;7.890;2022-10-31T17:00:26;15.70;99.90
15296;DHT22;7749;49.964;7.890;2022-10-31T17:03:04;15.70;99.90
15296;DHT22;7749;49.964;7.890;2022-10-31T17:05:33;15.60;99.90
15296;DHT22;7749;49.964;7.890;2022-10-31T17:08:04;15.60;99.90
15296;DHT22;7749;49.964;7.890;2022-10-31T17:10:40;15.50;99.90
15296;DHT22;7749;49.964;7.890;2022-10-31T17:13:18;15.50;99.90
15296;DHT22;7749;49.964;7.890;2022-10-31T17:15:50;15.50;99.90
15296;DHT22;7749;49.964;7.890;2022-10-31T17:18:21;15.40;99.90
15296;DHT22;7749;49.964;7.890;2022-10-31T17:20:59;15.40;99.90
15296;DHT22;7749;49.964;7.890;2022-10-31T17:23:28;15.40;99.90
15296;DHT22;7749;49.964;7.890;2022-10-31T17:25:56;15.20;99.90
15296;DHT22;7749;49.964;7.890;2022-10-31T17:28:25;15.10;99.90
15296;DHT22;7749;49.964;7.890;2022-10-31T17:30:55;15.00;99.90
15296;DHT22;7749;49.964;7.890;2022-10-31T17:33:24;15.00;99.90
15296;DHT22;7749;49.964;7.890;2022-10-31T17:35:54;14.80;99.90
15296;DHT22;7749;49.964;7.890;2022-10-31T17:38:27;14.70;99.90
15296;DHT22;7749;49.964;7.890;2022-10-31T17:40:55;14.60;99.90
15296;DHT22;7749;49.964;7.890;2022-10-31T17:43:26;14.60;99.90
15296;DHT22;7749;49.964;7.890;2022-10-31T17:45:58;14.60;99.90
15296;DHT22;7749;49.964;7.890;2022-10-31T17:48:27;14.50;99.90
15296;DHT22;7749;49.964;7.890;2022-10-31T17:51:00;14.40;99.90
15296;DHT22;7749;49.964;7.890;2022-10-31T17:53:29;14.30;99.90
15296;DHT22;7749;49.964;7.890;2022-10-31T17:56:03;14.30;99.90
15296;DHT22;7749;49.964;7.890;2022-10-31T17:58:34;14.20;99.90
15296;DHT22;7749;49.964;7.890;2022-10-31T18:01:14;14.20;99.90
15296;DHT22;7749;49.964;7.890;2022-10-31T18:03:42;14.10;99.90
15296;DHT22;7749;49.964;7.890;2022-10-31T18:06:11;14.10;99.90
15296;DHT22;7749;49.964;7.890;2022-10-31T18:08:40;14.10;99.90
15296;DHT22;7749;49.964;7.890;2022-10-31T18:11:19;14.00;99.90
15296;DHT22;7749;49.964;7.890;2022-10-31T18:13:52;14.10;99.90
15296;DHT22;7749;49.964;7.890;2022-10-31T18:19:25;14.10;99.90
15296;DHT22;7749;49.964;7.890;2022-10-31T18:22:25;14.00;99.90
15296;DHT22;7749;49.964;7.890;2022-10-31T18:25:26;14.00;99.90
15296;DHT22;7749;49.964;7.890;2022-10-31T18:29:01;14.00;99.90
15296;DHT22;7749;49.964;7.890;2022-10-31T18:32:16;13.90;99.90
15296;DHT22;7749;49.964;7.890;2022-10-31T18:35:21;13.80;99.90
15296;DHT22;7749;49.964;7.890;2022-10-31T18:38:02;13.80;99.90
15296;DHT22;7749;49.964;7.890;2022-10-31T18:40:34;13.80;99.90
15296;DHT22;7749;49.964;7.890;2022-10-31T18:43:08;13.80;99.90
15296;DHT22;7749;49.964;7.890;2022-10-31T18:45:37;13.80;99.90
15296;DHT22;7749;49.964;7.890;2022-10-31T18:48:15;13.70;99.90
15296;DHT22;7749;49.964;7.890;2022-10-31T18:50:44;13.70;99.90
15296;DHT22;7749;49.964;7.890;2022-10-31T18:53:11;13.70;99.90
15296;DHT22;7749;49.964;7.890;2022-10-31T18:55:40;13.60;99.90
15296;DHT22;7749;49.964;7.890;2022-10-31T18:58:15;13.60;99.90
15296;DHT22;7749;49.964;7.890;2022-10-31T19:00:44;13.70;99.90
15296;DHT22;7749;49.964;7.890;2022-10-31T19:03:13;13.60;99.90
15296;DHT22;7749;49.964;7.890;2022-10-31T19:05:41;13.60;99.90
15296;DHT22;7749;49.964;7.890;2022-10-31T19:08:09;13.60;99.90
15296;DHT22;7749;49.964;7.890;2022-10-31T19:10:38;13.60;99.90
15296;DHT22;7749;49.964;7.890;2022-10-31T19:13:06;13.50;99.90
15296;DHT22;7749;49.964;7.890;2022-10-31T19:15:34;13.50;99.90
15296;DHT22;7749;49.964;7.890;2022-10-31T19:18:02;13.40;99.90
15296;DHT22;7749;49.964;7.890;2022-10-31T19:20:31;13.30;99.90
15296;DHT22;7749;49.964;7.890;2022-10-31T19:22:58;13.30;99.90
15296;DHT22;7749;49.964;7.890;2022-10-31T19:25:27;13.20;99.90
15296;DHT22;7749;49.964;7.890;2022-10-31T19:27:54;13.20;99.90
15296;DHT22;7749;49.964;7.890;2022-10-31T19:30:22;13.10;99.90
15296;DHT22;7749;49.964;7.890;2022-10-31T19:32:53;13.10;99.90
15296;DHT22;7749;49.964;7.890;2022-10-31T19:35:21;13.20;99.90
15296;DHT22;7749;49.964;7.890;2022-10-31T19:37:49;13.20;99.90
15296;DHT22;7749;49.964;7.890;2022-10-31T19:40:17;13.10;99.90
15296;DHT22;7749;49.964;7.890;2022-10-31T19:42:45;13.10;99.90
15296;DHT22;7749;49.964;7.890;2022-10-31T19:45:12;13.10;99.90
15296;DHT22;7749;49.964;7.890;2022-10-31T19:47:40;13.00;99.90
15296;DHT22;7749;49.964;7.890;2022-10-31T19:50:08;13.00;99.90
15296;DHT22;7749;49.964;7.890;2022-10-31T19:52:36;12.90;99.90
15296;DHT22;7749;49.964;7.890;2022-10-31T19:55:04;13.00;99.90
15296;DHT22;7749;49.964;7.890;2022-10-31T19:57:33;12.90;99.90
15296;DHT22;7749;49.964;7.890;2022-10-31T20:00:22;12.90;99.90